createdAt,value
2022-10-13T00:00:14.351Z,148259.84
2022-10-13T00:01:18.930Z,148292.59
2022-10-13T00:02:21.456Z,148276.81
2022-10-13T00:03:24.441Z,148280.44
2022-10-13T00:04:27.522Z,148319.28
2022-10-13T00:05:30.657Z,148296.22
2022-10-13T00:06:32.790Z,148299.84
2022-10-13T00:07:34.975Z,148313.16
2022-10-13T00:08:38.251Z,148296.22
2022-10-13T00:09:40.365Z,148318.06
2022-10-13T00:10:42.972Z,148328.97
2022-10-13T00:11:46.985Z,148337.44
2022-10-13T00:12:49.642Z,148344.69
2022-10-13T00:13:56.387Z,148407.78
2022-10-13T00:14:58.589Z,148361.69
2022-10-13T00:16:02.452Z,148407.78
2022-10-13T00:17:06.098Z,148379.88
2022-10-13T00:18:09.189Z,148388.41
2022-10-13T00:19:14.936Z,148389.59
2022-10-13T00:20:17.424Z,148392.03
2022-10-13T00:21:23.269Z,148417.50
2022-10-13T00:22:27.515Z,148436.91
2022-10-13T00:23:29.642Z,148390.81
2022-10-13T00:24:31.801Z,148373.81
2022-10-13T00:25:33.925Z,148390.81
2022-10-13T00:26:36.070Z,148402.94
2022-10-13T00:27:42.478Z,148416.31
2022-10-13T00:28:49.735Z,148408.97
2022-10-13T00:29:54.342Z,148422.34
2022-10-13T00:30:56.965Z,148418.72
2022-10-13T00:31:59.045Z,148436.91
2022-10-13T00:33:01.253Z,148427.19
2022-10-13T00:34:03.439Z,148426.00
2022-10-13T00:35:05.934Z,148453.91
2022-10-13T00:36:08.352Z,148449.06
2022-10-13T00:37:10.524Z,148462.38
2022-10-13T00:38:13.396Z,148480.56
2022-10-13T00:39:15.523Z,148475.69
2022-10-13T00:40:17.666Z,148478.13
2022-10-13T00:41:21.189Z,148495.13
2022-10-13T00:42:26.148Z,148492.72
2022-10-13T00:43:59.955Z,148567.97
2022-10-13T00:45:07.308Z,148554.59
2022-10-13T00:46:10.279Z,148512.09
2022-10-13T00:47:12.486Z,148487.88
2022-10-13T00:48:14.637Z,148478.13
2022-10-13T00:49:16.787Z,148478.13
2022-10-13T00:50:27.541Z,148540.00
2022-10-13T00:51:33.621Z,148541.22
2022-10-13T00:52:37.142Z,148538.78
2022-10-13T00:53:40.526Z,148526.69
2022-10-13T00:54:43.089Z,148519.41
2022-10-13T00:55:47.520Z,148543.66
2022-10-13T00:56:51.157Z,148517.00
2022-10-13T00:57:55.818Z,148501.19
2022-10-13T00:59:11.341Z,148550.97
2022-10-13T01:00:16.663Z,148473.28
2022-10-13T01:01:18.982Z,148458.75
2022-10-13T01:02:22.566Z,148497.56
2022-10-13T01:03:26.406Z,148504.81
2022-10-13T01:04:34.305Z,148520.63
2022-10-13T01:05:37.618Z,148453.91
2022-10-13T01:06:41.131Z,148456.31
2022-10-13T01:07:48.260Z,148463.59
2022-10-13T01:08:50.401Z,148449.06
2022-10-13T01:09:52.911Z,148445.38
2022-10-13T01:11:01.684Z,148434.47
2022-10-13T01:12:18.609Z,148498.78
2022-10-13T01:13:37.467Z,148529.09
2022-10-13T01:14:55.729Z,148514.56
2022-10-13T01:16:07.991Z,148493.91
2022-10-13T01:17:16.403Z,148517.00
2022-10-13T01:18:32.626Z,148417.50
2022-10-13T01:19:51.221Z,148491.50
2022-10-13T01:21:08.686Z,148489.06
2022-10-13T01:22:31.123Z,148478.13
2022-10-13T01:23:47.637Z,148476.91
2022-10-13T01:25:21.807Z,148476.91
2022-10-13T01:26:47.413Z,148481.81
2022-10-13T01:28:28.342Z,148463.59
2022-10-13T01:29:52.123Z,148472.06
2022-10-13T01:31:31.536Z,148472.06
2022-10-13T01:32:51.248Z,148458.75
2022-10-13T01:33:59.221Z,148456.31
2022-10-13T01:35:14.471Z,148453.91
2022-10-13T01:36:32.093Z,148446.59
2022-10-13T01:38:03.304Z,148458.75
2022-10-13T01:39:24.086Z,148493.91
2022-10-13T01:40:27.283Z,148457.53
2022-10-13T01:41:36.885Z,148475.69
2022-10-13T01:42:52.748Z,148461.16
2022-10-13T01:44:13.035Z,148470.84
2022-10-13T01:45:21.962Z,148458.75
2022-10-13T01:46:29.532Z,148451.47
2022-10-13T01:47:34.206Z,148419.94
2022-10-13T01:48:39.482Z,148416.31
2022-10-13T01:49:43.382Z,148412.63
2022-10-13T01:50:48.065Z,148419.94
2022-10-13T01:51:52.058Z,148389.59
2022-10-13T01:52:55.352Z,148410.19
2022-10-13T01:53:57.634Z,148383.56
2022-10-13T01:55:06.601Z,148461.16
2022-10-13T01:56:08.718Z,148400.50
2022-10-13T01:57:47.234Z,148483.03
2022-10-13T01:58:51.023Z,148413.84
2022-10-13T01:59:53.212Z,148378.66
2022-10-13T02:01:14.758Z,148375.03
2022-10-13T02:02:46.400Z,148470.84
2022-10-13T02:03:54.003Z,148461.16
2022-10-13T02:05:01.034Z,148449.06
2022-10-13T02:06:19.645Z,148473.28
2022-10-13T02:07:33.831Z,148478.13
2022-10-13T02:09:18.883Z,148492.72
2022-10-13T02:10:33.483Z,148475.69
2022-10-13T02:11:35.607Z,148387.19
2022-10-13T02:12:51.474Z,148468.44
2022-10-13T02:14:08.164Z,148470.84
2022-10-13T02:15:14.359Z,148463.59
2022-10-13T02:16:17.112Z,148418.72
2022-10-13T02:17:19.627Z,148429.63
2022-10-13T02:18:27.035Z,148463.59
2022-10-13T02:19:30.928Z,148438.09
2022-10-13T02:20:33.841Z,148441.75
2022-10-13T02:21:36.140Z,148419.94
2022-10-13T02:22:46.580Z,148504.81
2022-10-13T02:23:48.819Z,148434.47
2022-10-13T02:24:53.709Z,148451.47
2022-10-13T02:25:59.192Z,148459.97
2022-10-13T02:27:02.186Z,148427.19
2022-10-13T02:28:05.504Z,148456.31
2022-10-13T02:29:14.335Z,148484.22
2022-10-13T02:30:25.128Z,148549.75
2022-10-13T02:31:27.277Z,148445.38
2022-10-13T02:32:29.761Z,148441.75
2022-10-13T02:33:32.039Z,148415.03
2022-10-13T02:34:34.130Z,148439.31
2022-10-13T02:35:36.284Z,148452.69
2022-10-13T02:36:39.642Z,148478.13
2022-10-13T02:37:41.877Z,148470.84
2022-10-13T02:38:45.268Z,148449.06
2022-10-13T02:39:47.503Z,148446.59
2022-10-13T02:40:52.143Z,148449.06
2022-10-13T02:41:56.566Z,148470.84
2022-10-13T02:42:58.811Z,148441.75
2022-10-13T02:44:01.039Z,148436.91
2022-10-13T02:45:10.210Z,148468.44
2022-10-13T02:46:12.338Z,148436.91
2022-10-13T02:47:14.496Z,148441.75
2022-10-13T02:48:16.604Z,148432.03
2022-10-13T02:49:18.719Z,148458.75
2022-10-13T02:50:20.923Z,148468.44
2022-10-13T02:51:25.989Z,148473.28
2022-10-13T02:52:29.193Z,148447.78
2022-10-13T02:53:31.593Z,148446.59
2022-10-13T02:54:34.677Z,148470.84
2022-10-13T02:55:36.895Z,148458.75
2022-10-13T02:56:39.118Z,148484.22
2022-10-13T02:57:41.222Z,148478.13
2022-10-13T02:58:43.339Z,148468.44
2022-10-13T02:59:45.886Z,148475.69
2022-10-13T03:00:48.046Z,148468.44
2022-10-13T03:01:50.256Z,148478.13
2022-10-13T03:02:52.357Z,148484.22
2022-10-13T03:03:54.557Z,148514.56
2022-10-13T03:04:56.758Z,148521.84
2022-10-13T03:05:58.965Z,148504.81
2022-10-13T03:07:01.811Z,148504.81
2022-10-13T03:08:04.578Z,148530.31
2022-10-13T03:09:06.794Z,148484.22
2022-10-13T03:10:09.233Z,148478.13
2022-10-13T03:11:11.527Z,148485.44
2022-10-13T03:12:13.646Z,148476.91
2022-10-13T03:13:15.860Z,148468.44
2022-10-13T03:14:18.087Z,148497.56
2022-10-13T03:15:20.228Z,148490.28
2022-10-13T03:16:24.116Z,148499.97
2022-10-13T03:17:27.043Z,148506.03
2022-10-13T03:18:30.118Z,148513.31
2022-10-13T03:19:32.228Z,148495.13
2022-10-13T03:20:35.175Z,148480.56
2022-10-13T03:21:38.578Z,148509.66
2022-10-13T03:22:40.743Z,148483.03
2022-10-13T03:23:43.054Z,148495.13
2022-10-13T03:24:45.388Z,148510.88
2022-10-13T03:25:47.521Z,148502.41
2022-10-13T03:26:49.807Z,148502.41
2022-10-13T03:27:55.691Z,148509.66
2022-10-13T03:28:57.972Z,148493.91
2022-10-13T03:30:00.178Z,148495.13
2022-10-13T03:31:08.264Z,148563.13
2022-10-13T03:32:10.444Z,148496.34
2022-10-13T03:33:12.932Z,148512.09
2022-10-13T03:34:16.508Z,148531.53
2022-10-13T03:35:18.690Z,148499.97
2022-10-13T03:36:20.908Z,148504.81
2022-10-13T03:37:25.494Z,148490.28
2022-10-13T03:38:28.913Z,148520.63
2022-10-13T03:39:31.066Z,148493.91
2022-10-13T03:40:35.073Z,148497.56
2022-10-13T03:41:37.292Z,148469.66
2022-10-13T03:42:39.956Z,148485.44
2022-10-13T03:43:43.750Z,148508.47
2022-10-13T03:44:45.948Z,148484.22
2022-10-13T03:45:58.983Z,148582.56
2022-10-13T03:47:01.188Z,148506.03
2022-10-13T03:48:03.488Z,148476.91
2022-10-13T03:49:05.811Z,148478.13
2022-10-13T03:50:08.755Z,148510.88
2022-10-13T03:51:14.382Z,148561.91
2022-10-13T03:52:20.554Z,148512.09
2022-10-13T03:53:23.011Z,148497.56
2022-10-13T03:54:25.201Z,148510.88
2022-10-13T03:55:28.593Z,148525.47
2022-10-13T03:56:30.861Z,148527.88
2022-10-13T03:57:32.970Z,148524.25
2022-10-13T03:58:35.189Z,148526.69
2022-10-13T03:59:40.603Z,148560.69
2022-10-13T04:00:42.765Z,148487.88
2022-10-13T04:01:45.291Z,148487.88
2022-10-13T04:02:49.570Z,148557.03
2022-10-13T04:03:55.736Z,148587.41
2022-10-13T04:04:57.946Z,148529.09
2022-10-13T04:06:04.608Z,148555.81
2022-10-13T04:07:08.273Z,148567.97
2022-10-13T04:08:10.747Z,148543.66
2022-10-13T04:09:13.065Z,148537.59
2022-10-13T04:10:15.335Z,148530.31
2022-10-13T04:11:18.816Z,148549.75
2022-10-13T04:12:26.167Z,148520.63
2022-10-13T04:13:29.043Z,148524.25
2022-10-13T04:14:31.214Z,148518.19
2022-10-13T04:15:40.357Z,148543.66
2022-10-13T04:16:42.513Z,148509.66
2022-10-13T04:17:44.660Z,148492.72
2022-10-13T04:18:51.995Z,148544.84
2022-10-13T04:19:54.148Z,148473.28
2022-10-13T04:20:56.278Z,148473.28
2022-10-13T04:21:58.390Z,148458.75
2022-10-13T04:23:00.499Z,148485.44
2022-10-13T04:24:04.104Z,148525.47
2022-10-13T04:25:07.045Z,148524.25
2022-10-13T04:26:17.191Z,148584.97
2022-10-13T04:27:20.104Z,148529.09
2022-10-13T04:28:22.355Z,148507.25
2022-10-13T04:29:24.588Z,148514.56
2022-10-13T04:30:27.251Z,148508.47
2022-10-13T04:31:30.420Z,148548.53
2022-10-13T04:32:32.940Z,148548.53
2022-10-13T04:33:37.975Z,148518.19
2022-10-13T04:34:40.198Z,148483.03
2022-10-13T04:35:42.315Z,148495.13
2022-10-13T04:36:44.427Z,148513.31
2022-10-13T04:37:46.581Z,148496.34
2022-10-13T04:38:49.358Z,148540.00
2022-10-13T04:39:51.610Z,148521.84
2022-10-13T04:40:53.782Z,148514.56
2022-10-13T04:41:55.907Z,148513.31
2022-10-13T04:42:58.371Z,148532.75
2022-10-13T04:44:02.448Z,148530.31
2022-10-13T04:45:04.999Z,148509.66
2022-10-13T04:46:15.445Z,148512.09
2022-10-13T04:47:17.568Z,148506.03
2022-10-13T04:48:19.697Z,148514.56
2022-10-13T04:49:21.967Z,148517.00
2022-10-13T04:50:24.122Z,148529.09
2022-10-13T04:51:33.528Z,148544.84
2022-10-13T04:52:36.330Z,148565.53
2022-10-13T04:53:38.755Z,148558.28
2022-10-13T04:54:44.408Z,148532.75
2022-10-13T04:55:46.523Z,148526.69
2022-10-13T04:56:48.670Z,148517.00
2022-10-13T04:57:50.767Z,148514.56
2022-10-13T04:58:53.449Z,148519.41
2022-10-13T04:59:55.574Z,148497.56
2022-10-13T05:00:58.034Z,148509.66
2022-10-13T05:02:00.801Z,148521.84
2022-10-13T05:03:02.968Z,148508.47
2022-10-13T05:04:05.918Z,148520.63
2022-10-13T05:05:10.919Z,148498.78
2022-10-13T05:06:18.537Z,148561.91
2022-10-13T05:07:23.595Z,148495.13
2022-10-13T05:08:26.056Z,148510.88
2022-10-13T05:09:28.228Z,148497.56
2022-10-13T05:10:34.679Z,148480.56
2022-10-13T05:11:37.044Z,148490.28
2022-10-13T05:12:39.183Z,148487.88
2022-10-13T05:13:41.482Z,148502.41
2022-10-13T05:14:43.625Z,148519.41
2022-10-13T05:15:45.766Z,148503.63
2022-10-13T05:16:49.627Z,148502.41
2022-10-13T05:17:51.774Z,148519.41
2022-10-13T05:18:55.280Z,148538.78
2022-10-13T05:19:57.401Z,148521.84
2022-10-13T05:21:07.205Z,148567.97
2022-10-13T05:22:11.891Z,148521.84
2022-10-13T05:23:17.384Z,148531.53
2022-10-13T05:24:30.702Z,148508.47
2022-10-13T05:25:35.277Z,148552.16
2022-10-13T05:26:37.426Z,148487.88
2022-10-13T05:27:39.654Z,148499.97
2022-10-13T05:28:45.663Z,148512.09
2022-10-13T05:29:47.855Z,148486.66
2022-10-13T05:30:49.975Z,148501.19
2022-10-13T05:31:52.146Z,148498.78
2022-10-13T05:32:54.567Z,148487.88
2022-10-13T05:33:57.422Z,148497.56
2022-10-13T05:34:59.538Z,148498.78
2022-10-13T05:36:13.622Z,148559.50
2022-10-13T05:37:17.103Z,148496.34
2022-10-13T05:38:23.747Z,148501.19
2022-10-13T05:39:29.060Z,148512.09
2022-10-13T05:40:31.201Z,148520.63
2022-10-13T05:41:35.656Z,148523.03
2022-10-13T05:42:41.674Z,148498.78
2022-10-13T05:43:45.344Z,148495.13
2022-10-13T05:44:47.512Z,148495.13
2022-10-13T05:45:49.797Z,148504.81
2022-10-13T05:46:55.034Z,148491.50
2022-10-13T05:47:57.173Z,148492.72
2022-10-13T05:48:59.311Z,148487.88
2022-10-13T05:50:02.553Z,148495.13
2022-10-13T05:51:20.727Z,148577.66
2022-10-13T05:52:25.553Z,148548.53
2022-10-13T05:53:32.256Z,148544.84
2022-10-13T05:54:40.218Z,148572.81
2022-10-13T05:55:43.052Z,148514.56
2022-10-13T05:56:56.288Z,148577.66
2022-10-13T05:57:58.522Z,148514.56
2022-10-13T05:59:04.676Z,148397.88
2022-10-13T06:00:13.495Z,147236.13
2022-10-13T06:01:21.397Z,148079.59
2022-10-13T06:02:26.726Z,148292.09
2022-10-13T06:03:29.887Z,148520.63
2022-10-13T06:04:37.526Z,146564.25
2022-10-13T06:05:40.746Z,148533.94
2022-10-13T06:06:42.958Z,148525.47
2022-10-13T06:07:47.062Z,147737.06
2022-10-13T06:08:50.903Z,146434.44
2022-10-13T06:09:53.126Z,142416.44
2022-10-13T06:10:55.428Z,139740.53
2022-10-13T06:11:58.554Z,140098.75
2022-10-13T06:13:00.747Z,146522.34
2022-10-13T06:14:02.913Z,143132.94
2022-10-13T06:15:05.561Z,143977.25
2022-10-13T06:16:07.786Z,143225.06
2022-10-13T06:17:09.935Z,143911.75
2022-10-13T06:18:12.587Z,146350.38
2022-10-13T06:19:14.769Z,147823.84
2022-10-13T06:20:16.877Z,146404.00
2022-10-13T06:21:19.026Z,145486.03
2022-10-13T06:22:22.517Z,143338.53
2022-10-13T06:23:25.732Z,142290.41
2022-10-13T06:24:28.137Z,142363.25
2022-10-13T06:25:30.538Z,144365.03
2022-10-13T06:26:33.154Z,144568.03
2022-10-13T06:27:35.442Z,147627.53
2022-10-13T06:28:38.016Z,143753.38
2022-10-13T06:29:40.245Z,146953.28
2022-10-13T06:30:43.604Z,148599.53
2022-10-13T06:31:45.720Z,148335.69
2022-10-13T06:32:47.844Z,145887.69
2022-10-13T06:33:50.075Z,140823.69
2022-10-13T06:34:52.241Z,138459.06
2022-10-13T06:35:54.389Z,135452.13
2022-10-13T06:36:56.502Z,143872.50
2022-10-13T06:37:58.653Z,146455.69
2022-10-13T06:39:00.776Z,148612.91
2022-10-13T06:40:03.409Z,148135.56
2022-10-13T06:41:05.932Z,148283.22
2022-10-13T06:42:11.471Z,148628.66
2022-10-13T06:43:13.666Z,148660.22
2022-10-13T06:44:18.455Z,148651.72
2022-10-13T06:45:20.605Z,148657.78
2022-10-13T06:46:22.775Z,146388.34
2022-10-13T06:47:24.994Z,144841.63
2022-10-13T06:48:30.013Z,134177.81
2022-10-13T06:49:32.540Z,148660.22
2022-10-13T06:50:35.145Z,148669.91
2022-10-13T06:51:38.539Z,142756.91
2022-10-13T06:52:40.746Z,138145.03
2022-10-13T06:53:42.967Z,133777.16
2022-10-13T06:54:45.364Z,128409.06
2022-10-13T06:55:52.233Z,133784.75
2022-10-13T06:56:54.662Z,135507.28
2022-10-13T06:57:56.938Z,144924.19
2022-10-13T06:58:59.278Z,148706.31
2022-10-13T07:00:01.578Z,148716.06
2022-10-13T07:01:04.921Z,148737.88
2022-10-13T07:02:07.137Z,148736.69
2022-10-13T07:03:10.761Z,148774.31
2022-10-13T07:04:13.348Z,148744.00
2022-10-13T07:05:15.573Z,148730.63
2022-10-13T07:06:18.004Z,148754.91
2022-10-13T07:07:20.131Z,148754.91
2022-10-13T07:08:23.127Z,148760.97
2022-10-13T07:09:25.311Z,148768.25
2022-10-13T07:10:27.803Z,148776.78
2022-10-13T07:11:30.117Z,148781.63
2022-10-13T07:12:34.614Z,148796.19
2022-10-13T07:13:37.663Z,148776.78
2022-10-13T07:14:43.861Z,148801.03
2022-10-13T07:15:46.434Z,148776.78
2022-10-13T07:16:49.159Z,148816.84
2022-10-13T07:17:53.886Z,148861.78
2022-10-13T07:18:56.031Z,148825.31
2022-10-13T07:19:58.666Z,148861.78
2022-10-13T07:21:03.148Z,148888.53
2022-10-13T07:22:05.288Z,148909.19
2022-10-13T07:23:07.423Z,148912.84
2022-10-13T07:24:11.606Z,148984.50
2022-10-13T07:25:15.189Z,149000.25
2022-10-13T07:26:17.605Z,148983.28
2022-10-13T07:27:19.843Z,148937.09
2022-10-13T07:28:26.111Z,148976.00
2022-10-13T07:29:29.586Z,148955.31
2022-10-13T07:30:31.747Z,148995.41
2022-10-13T07:31:34.741Z,149014.88
2022-10-13T07:32:37.227Z,149010.00
2022-10-13T07:33:44.621Z,149045.25
2022-10-13T07:34:46.863Z,148986.91
2022-10-13T07:35:49.071Z,148991.75
2022-10-13T07:36:51.337Z,148969.88
2022-10-13T07:37:54.021Z,148976.00
2022-10-13T07:38:56.395Z,149010.00
2022-10-13T07:40:01.772Z,149005.16
2022-10-13T07:41:11.509Z,149076.84
2022-10-13T07:42:17.127Z,149070.75
2022-10-13T07:43:19.323Z,149048.88
2022-10-13T07:44:23.011Z,149084.13
2022-10-13T07:45:25.639Z,148967.47
2022-10-13T07:46:27.892Z,149007.59
2022-10-13T07:47:30.078Z,148990.56
2022-10-13T07:48:33.440Z,149029.41
2022-10-13T07:49:37.530Z,149013.66
2022-10-13T07:50:43.435Z,149107.25
2022-10-13T07:51:48.674Z,149052.53
2022-10-13T07:52:55.608Z,149052.53
2022-10-13T07:53:58.319Z,149027.00
2022-10-13T07:55:00.440Z,149051.31
2022-10-13T07:56:05.182Z,149112.13
2022-10-13T07:57:07.393Z,149070.75
2022-10-13T07:58:10.099Z,149097.50
2022-10-13T07:59:12.680Z,149129.09
2022-10-13T08:00:15.082Z,149126.69
2022-10-13T08:01:17.529Z,149155.84
2022-10-13T08:02:20.386Z,149168.00
2022-10-13T08:03:22.820Z,149143.72
2022-10-13T08:04:25.535Z,149180.19
2022-10-13T08:05:27.888Z,149160.72
2022-10-13T08:06:30.137Z,149187.47
2022-10-13T08:07:33.537Z,149209.34
2022-10-13T08:08:36.476Z,149219.06
2022-10-13T08:09:38.659Z,149194.75
2022-10-13T08:10:40.905Z,149236.09
2022-10-13T08:11:43.115Z,149243.38
2022-10-13T08:12:45.424Z,149256.75
2022-10-13T08:13:50.301Z,149249.44
2022-10-13T08:15:00.501Z,149267.72
2022-10-13T08:16:05.810Z,149194.75
2022-10-13T08:17:07.950Z,149106.06
2022-10-13T08:18:11.677Z,149192.31
2022-10-13T08:19:15.401Z,149216.63
2022-10-13T08:20:17.612Z,149223.91
2022-10-13T08:22:44.373Z,149236.09
2022-10-13T08:23:46.912Z,149202.06
2022-10-13T08:24:56.138Z,149324.81
2022-10-13T08:25:58.685Z,149284.72
2022-10-13T08:27:00.813Z,149275.00
2022-10-13T08:28:03.007Z,149287.13
2022-10-13T08:29:22.325Z,149301.75
2022-10-13T08:30:25.471Z,149317.53
2022-10-13T08:31:27.979Z,149292.00
2022-10-13T08:32:30.774Z,149299.28
2022-10-13T08:33:32.910Z,149335.84
2022-10-13T08:34:36.822Z,149372.31
2022-10-13T08:35:39.248Z,149411.22
2022-10-13T08:36:41.408Z,149388.09
2022-10-13T08:37:43.509Z,149375.97
2022-10-13T08:38:45.980Z,149362.56
2022-10-13T08:39:48.954Z,149418.50
2022-10-13T08:40:51.562Z,149384.47
2022-10-13T08:41:55.401Z,149357.69
2022-10-13T08:43:00.344Z,149386.88
2022-10-13T08:46:09.570Z,149403.94
2022-10-13T08:47:30.241Z,149493.91
2022-10-13T08:48:36.781Z,149442.84
2022-10-13T08:49:42.514Z,149441.63
2022-10-13T08:50:47.617Z,149445.28
2022-10-13T08:51:49.790Z,149401.50
2022-10-13T08:53:02.779Z,149513.38
2022-10-13T08:54:05.816Z,149480.53
2022-10-13T08:55:17.672Z,149534.09
2022-10-13T08:56:30.308Z,149545.03
2022-10-13T08:57:32.422Z,149447.72
2022-10-13T08:58:37.006Z,149486.63
2022-10-13T08:59:39.985Z,149408.78
2022-10-13T09:00:42.708Z,149495.13
2022-10-13T09:01:54.497Z,149503.66
2022-10-13T09:03:19.548Z,149541.38
2022-10-13T09:04:30.018Z,149552.31
2022-10-13T09:05:41.942Z,149605.91
2022-10-13T09:06:53.012Z,149613.19
2022-10-13T09:07:58.086Z,149598.63
2022-10-13T09:09:07.429Z,149618.06
2022-10-13T09:10:09.823Z,149553.53
2022-10-13T09:11:12.987Z,149626.56
2022-10-13T09:12:15.796Z,149654.56
2022-10-13T09:13:19.713Z,149618.06
2022-10-13T09:14:28.209Z,149712.97
2022-10-13T09:15:30.345Z,149540.16
2022-10-13T09:16:41.122Z,149717.84
2022-10-13T09:18:08.196Z,149725.13
2022-10-13T09:19:27.449Z,149616.84
2022-10-13T09:20:29.634Z,149543.81
2022-10-13T09:21:31.773Z,149475.69
2022-10-13T09:22:36.776Z,149503.66
2022-10-13T09:23:41.171Z,149501.25
2022-10-13T09:24:44.348Z,149461.06
2022-10-13T09:25:58.590Z,149584.00
2022-10-13T09:27:11.613Z,149560.84
2022-10-13T09:28:27.839Z,149439.19
2022-10-13T09:29:30.088Z,149484.19
2022-10-13T09:30:36.763Z,149603.47
2022-10-13T09:31:38.892Z,149543.81
2022-10-13T09:32:43.905Z,149577.91
2022-10-13T09:33:46.751Z,149574.28
2022-10-13T09:34:51.541Z,149615.63
2022-10-13T09:35:56.271Z,149728.84
2022-10-13T09:37:04.427Z,149759.25
2022-10-13T09:38:20.280Z,149888.31
2022-10-13T09:39:22.749Z,149957.75
2022-10-13T09:40:24.980Z,150047.91
2022-10-13T09:41:27.152Z,150019.88
2022-10-13T09:42:31.735Z,150086.94
2022-10-13T09:43:41.395Z,150163.66
2022-10-13T09:44:43.595Z,150145.38
2022-10-13T09:45:45.814Z,150129.56
2022-10-13T09:46:52.399Z,150295.31
2022-10-13T09:48:05.658Z,150259.97
2022-10-13T09:49:32.055Z,150288.00
2022-10-13T09:50:35.915Z,150329.44
2022-10-13T09:51:42.535Z,150429.44
2022-10-13T09:53:26.571Z,150529.44
2022-10-13T09:54:38.540Z,150433.09
2022-10-13T09:55:41.291Z,150405.06
2022-10-13T09:56:54.689Z,150372.09
2022-10-13T09:58:05.802Z,150363.56
2022-10-13T09:59:19.795Z,150203.91
2022-10-13T10:00:23.474Z,150146.59
2022-10-13T10:01:30.914Z,150116.13
2022-10-13T10:02:42.366Z,150097.88
2022-10-13T10:03:45.239Z,149818.91
2022-10-13T10:04:47.604Z,149846.94
2022-10-13T10:05:56.196Z,149922.41
2022-10-13T10:06:58.407Z,149883.44
2022-10-13T10:08:11.266Z,149782.41
2022-10-13T10:09:37.346Z,149837.22
2022-10-13T10:10:41.337Z,149868.84
2022-10-13T10:11:47.670Z,149877.38
2022-10-13T10:12:50.218Z,149793.38
2022-10-13T10:13:52.813Z,149807.97
2022-10-13T10:14:55.615Z,149719.06
2022-10-13T10:16:38.634Z,149793.38
2022-10-13T10:17:49.056Z,149730.03
2022-10-13T10:18:59.094Z,149622.91
2022-10-13T10:20:22.621Z,149742.19
2022-10-13T10:21:34.791Z,149637.53
2022-10-13T10:22:39.480Z,149681.34
2022-10-13T10:23:57.255Z,149704.47
2022-10-13T10:25:02.123Z,149720.28
2022-10-13T10:26:20.776Z,149613.19
2022-10-13T10:27:28.681Z,149657.00
2022-10-13T10:28:30.703Z,149588.84
2022-10-13T10:29:58.303Z,149747.06
2022-10-13T10:31:34.657Z,149764.13
2022-10-13T10:32:58.520Z,149675.25
2022-10-13T10:34:16.635Z,149674.03
2022-10-13T10:35:33.170Z,149759.25
2022-10-13T10:36:50.037Z,149768.97
2022-10-13T10:38:16.367Z,149798.25
2022-10-13T10:39:42.278Z,149850.56
2022-10-13T10:41:14.594Z,149853.00
2022-10-13T10:42:52.344Z,149862.78
2022-10-13T10:44:08.485Z,149887.09
2022-10-13T10:45:38.854Z,149883.44
2022-10-13T10:46:46.949Z,149789.69
2022-10-13T10:47:55.294Z,149753.13
2022-10-13T10:49:02.678Z,149856.66
2022-10-13T10:50:07.126Z,149821.34
2022-10-13T10:51:11.411Z,149868.84
2022-10-13T10:52:44.347Z,149980.88
2022-10-13T10:54:18.550Z,149999.22
2022-10-13T10:55:36.985Z,149974.78
2022-10-13T10:56:44.644Z,150075.94
2022-10-13T10:58:01.050Z,150172.19
2022-10-13T10:59:43.124Z,150161.22
2022-10-13T11:01:11.374Z,150162.44
2022-10-13T11:02:46.206Z,150166.09
2022-10-13T11:03:58.002Z,150086.94
2022-10-13T11:05:05.308Z,149913.91
2022-10-13T11:06:17.533Z,150071.06
2022-10-13T11:07:22.591Z,150029.66
2022-10-13T11:08:40.054Z,150097.88
2022-10-13T11:09:42.231Z,150022.38
2022-10-13T11:10:44.397Z,150064.97
2022-10-13T11:11:47.067Z,149867.66
2022-10-13T11:12:52.749Z,150013.81
2022-10-13T11:14:06.165Z,150058.91
2022-10-13T11:15:14.057Z,150036.97
2022-10-13T11:16:41.152Z,150067.41
2022-10-13T11:17:48.271Z,150022.38
2022-10-13T11:19:05.345Z,150078.34
2022-10-13T11:20:35.943Z,150047.91
2022-10-13T11:22:04.066Z,150097.88
2022-10-13T11:23:13.004Z,150122.25
2022-10-13T11:24:33.485Z,150256.31
2022-10-13T11:25:35.765Z,150272.16
2022-10-13T11:26:42.956Z,150313.56
2022-10-13T11:27:45.177Z,150108.81
2022-10-13T11:28:47.997Z,150199.03
2022-10-13T11:29:55.101Z,150208.78
2022-10-13T11:31:24.221Z,150368.44
2022-10-13T11:32:35.321Z,150346.50
2022-10-13T11:33:38.546Z,150348.91
2022-10-13T11:35:04.198Z,150427.03
2022-10-13T11:36:43.761Z,150435.53
2022-10-13T11:38:07.357Z,150414.78
2022-10-13T11:39:28.533Z,150179.47
2022-10-13T11:40:39.670Z,150113.69
2022-10-13T11:41:46.539Z,150127.13
2022-10-13T11:43:05.277Z,150114.91
2022-10-13T11:44:36.805Z,150022.38
2022-10-13T11:45:44.845Z,150012.59
2022-10-13T11:47:11.418Z,150185.59
2022-10-13T11:48:42.741Z,150334.31
2022-10-13T11:50:00.808Z,150495.28
2022-10-13T11:51:31.140Z,150512.34
2022-10-13T11:52:48.317Z,150523.34
2022-10-13T11:54:04.539Z,150403.84
2022-10-13T11:55:18.645Z,150451.41
2022-10-13T11:56:31.775Z,150457.50
2022-10-13T11:57:33.937Z,150420.94
2022-10-13T11:58:42.347Z,150160.00
2022-10-13T11:59:47.489Z,150279.44
2022-10-13T12:01:15.928Z,150363.56
2022-10-13T12:02:19.315Z,150292.88
2022-10-13T12:03:31.511Z,150379.44
2022-10-13T12:04:33.673Z,150317.28
2022-10-13T12:05:36.022Z,150266.06
2022-10-13T12:06:40.363Z,150329.44
2022-10-13T12:07:42.906Z,150277.03
2022-10-13T12:08:47.896Z,150348.91
2022-10-13T12:09:52.311Z,150314.78
2022-10-13T12:10:59.939Z,150134.41
2022-10-13T12:12:22.732Z,150285.59
2022-10-13T12:13:28.323Z,150270.94
2022-10-13T12:14:43.329Z,150396.53
2022-10-13T12:15:45.843Z,150341.63
2022-10-13T12:18:22.365Z,150242.91
2022-10-13T12:19:27.452Z,150141.72
2022-10-13T12:20:33.148Z,150178.25
2022-10-13T12:21:52.105Z,150311.13
2022-10-13T12:22:55.262Z,150149.00
2022-10-13T12:24:08.435Z,150180.69
2022-10-13T12:25:18.444Z,150167.31
2022-10-13T12:26:22.935Z,150230.72
2022-10-13T12:27:25.415Z,150114.91
2022-10-13T12:28:43.115Z,150178.25
2022-10-13T12:29:45.483Z,150102.75
2022-10-13T12:30:57.218Z,150218.56
2022-10-13T12:31:59.566Z,150180.69
2022-10-13T12:33:02.238Z,150190.53
2022-10-13T12:34:04.461Z,150093.00
2022-10-13T12:35:28.458Z,150295.31
2022-10-13T12:36:33.654Z,150240.47
2022-10-13T12:37:37.322Z,150234.38
2022-10-13T12:38:44.025Z,150373.31
2022-10-13T12:39:46.290Z,150366.00
2022-10-13T12:40:49.984Z,150435.53
2022-10-13T12:41:53.274Z,150344.06
2022-10-13T12:42:56.074Z,150466.03
2022-10-13T12:44:01.135Z,150507.47
2022-10-13T12:45:07.265Z,150488.00
2022-10-13T12:46:09.787Z,150419.72
2022-10-13T12:47:47.292Z,150498.94